sensor_id;sensor_type;location;lat;lon;timestamp;temperature;humidity
18898;DHT22;9581;49.484;8.556;2023-05-10T00:01:17;15.30;99.90
18898;DHT22;9581;49.484;8.556;2023-05-10T00:03:44;15.20;99.90
18898;DHT22;9581;49.484;8.556;2023-05-10T00:06:10;15.20;99.90
18898;DHT22;9581;49.484;8.556;2023-05-10T00:08:37;15.30;99.90
18898;DHT22;9581;49.484;8.556;2023-05-10T00:11:04;15.20;99.90
18898;DHT22;9581;49.484;8.556;2023-05-10T00:13:32;15.10;99.90
18898;DHT22;9581;49.484;8.556;2023-05-10T00:15:59;15.00;99.90
18898;DHT22;9581;49.484;8.556;2023-05-10T00:18:26;15.00;99.90
18898;DHT22;9581;49.484;8.556;2023-05-10T00:20:53;15.10;99.90
18898;DHT22;9581;49.484;8.556;2023-05-10T00:23:19;15.00;99.90
18898;DHT22;9581;49.484;8.556;2023-05-10T00:25:46;14.90;99.90
18898;DHT22;9581;49.484;8.556;2023-05-10T00:28:13;14.80;99.90
18898;DHT22;9581;49.484;8.556;2023-05-10T00:30:41;15.00;99.90
18898;DHT22;9581;49.484;8.556;2023-05-10T00:33:08;14.80;99.90
18898;DHT22;9581;49.484;8.556;2023-05-10T00:35:35;14.80;99.90
18898;DHT22;9581;49.484;8.556;2023-05-10T00:38:01;14.70;99.90
18898;DHT22;9581;49.484;8.556;2023-05-10T00:40:28;14.90;99.90
18898;DHT22;9581;49.484;8.556;2023-05-10T00:42:55;14.70;99.90
18898;DHT22;9581;49.484;8.556;2023-05-10T00:45:22;14.80;99.90
18898;DHT22;9581;49.484;8.556;2023-05-10T00:47:51;15.00;99.90
18898;DHT22;9581;49.484;8.556;2023-05-10T00:50:20;15.00;99.90
18898;DHT22;9581;49.484;8.556;2023-05-10T00:52:47;15.10;99.90
18898;DHT22;9581;49.484;8.556;2023-05-10T00:55:14;15.10;99.90
18898;DHT22;9581;49.484;8.556;2023-05-10T00:57:41;15.10;99.90
18898;DHT22;9581;49.484;8.556;2023-05-10T01:00:09;15.10;99.90
18898;DHT22;9581;49.484;8.556;2023-05-10T01:02:36;15.00;99.90
18898;DHT22;9581;49.484;8.556;2023-05-10T01:05:05;15.00;99.90
18898;DHT22;9581;49.484;8.556;2023-05-10T01:07:32;14.80;99.90
18898;DHT22;9581;49.484;8.556;2023-05-10T01:09:59;14.90;99.90
18898;DHT22;9581;49.484;8.556;2023-05-10T01:12:26;14.90;99.90
18898;DHT22;9581;49.484;8.556;2023-05-10T01:14:53;15.00;99.90
18898;DHT22;9581;49.484;8.556;2023-05-10T01:17:21;14.90;99.90
18898;DHT22;9581;49.484;8.556;2023-05-10T01:19:49;14.80;99.90
18898;DHT22;9581;49.484;8.556;2023-05-10T01:22:38;15.00;99.90
18898;DHT22;9581;49.484;8.556;2023-05-10T01:25:32;14.60;99.90
18898;DHT22;9581;49.484;8.556;2023-05-10T01:28:32;14.60;99.90
18898;DHT22;9581;49.484;8.556;2023-05-10T01:31:21;14.60;99.90
18898;DHT22;9581;49.484;8.556;2023-05-10T01:33:55;14.50;99.90
18898;DHT22;9581;49.484;8.556;2023-05-10T01:36:26;14.70;99.90
18898;DHT22;9581;49.484;8.556;2023-05-10T01:38:59;14.90;99.90
18898;DHT22;9581;49.484;8.556;2023-05-10T01:41:33;14.80;99.90
18898;DHT22;9581;49.484;8.556;2023-05-10T01:44:06;15.00;99.90
18898;DHT22;9581;49.484;8.556;2023-05-10T01:46:37;14.70;99.90
18898;DHT22;9581;49.484;8.556;2023-05-10T01:49:08;14.90;99.90
18898;DHT22;9581;49.484;8.556;2023-05-10T01:51:39;14.60;99.90
18898;DHT22;9581;49.484;8.556;2023-05-10T01:54:08;14.60;99.90
18898;DHT22;9581;49.484;8.556;2023-05-10T01:56:37;14.60;99.90
18898;DHT22;9581;49.484;8.556;2023-05-10T01:59:08;14.70;99.90
18898;DHT22;9581;49.484;8.556;2023-05-10T02:01:38;14.60;99.90
18898;DHT22;9581;49.484;8.556;2023-05-10T02:04:07;14.90;99.90
18898;DHT22;9581;49.484;8.556;2023-05-10T02:06:34;15.00;99.90
18898;DHT22;9581;49.484;8.556;2023-05-10T02:09:02;15.10;99.90
18898;DHT22;9581;49.484;8.556;2023-05-10T02:11:29;15.00;99.90
18898;DHT22;9581;49.484;8.556;2023-05-10T02:13:58;15.10;99.90
18898;DHT22;9581;49.484;8.556;2023-05-10T02:16:26;15.20;99.90
18898;DHT22;9581;49.484;8.556;2023-05-10T02:18:53;15.20;99.90
18898;DHT22;9581;49.484;8.556;2023-05-10T02:21:22;15.20;99.90
18898;DHT22;9581;49.484;8.556;2023-05-10T02:23:51;15.20;99.90
18898;DHT22;9581;49.484;8.556;2023-05-10T02:26:20;15.20;99.90
18898;DHT22;9581;49.484;8.556;2023-05-10T02:28:49;15.30;99.90
18898;DHT22;9581;49.484;8.556;2023-05-10T02:31:17;15.00;99.90
18898;DHT22;9581;49.484;8.556;2023-05-10T02:33:45;15.10;99.90
18898;DHT22;9581;49.484;8.556;2023-05-10T02:36:13;15.20;99.90
18898;DHT22;9581;49.484;8.556;2023-05-10T02:38:43;15.20;99.90
18898;DHT22;9581;49.484;8.556;2023-05-10T02:41:11;15.20;99.90
18898;DHT22;9581;49.484;8.556;2023-05-10T02:43:40;15.20;99.90
18898;DHT22;9581;49.484;8.556;2023-05-10T02:46:07;15.20;99.90
18898;DHT22;9581;49.484;8.556;2023-05-10T02:48:34;15.20;99.90
18898;DHT22;9581;49.484;8.556;2023-05-10T02:51:04;15.20;99.90
18898;DHT22;9581;49.484;8.556;2023-05-10T02:53:34;15.10;99.90
18898;DHT22;9581;49.484;8.556;2023-05-10T02:56:05;15.10;99.90
18898;DHT22;9581;49.484;8.556;2023-05-10T02:58:34;15.00;99.90
18898;DHT22;9581;49.484;8.556;2023-05-10T03:01:01;15.00;99.90
18898;DHT22;9581;49.484;8.556;2023-05-10T03:03:28;15.10;99.90
18898;DHT22;9581;49.484;8.556;2023-05-10T03:05:54;15.10;99.90
18898;DHT22;9581;49.484;8.556;2023-05-10T03:08:22;15.00;99.90
18898;DHT22;9581;49.484;8.556;2023-05-10T03:10:58;15.10;99.90
18898;DHT22;9581;49.484;8.556;2023-05-10T03:13:36;15.00;99.90
18898;DHT22;9581;49.484;8.556;2023-05-10T03:16:08;14.90;99.90
18898;DHT22;9581;49.484;8.556;2023-05-10T03:18:42;14.80;99.90
18898;DHT22;9581;49.484;8.556;2023-05-10T03:21:11;14.70;99.90
18898;DHT22;9581;49.484;8.556;2023-05-10T03:23:43;14.40;99.90
18898;DHT22;9581;49.484;8.556;2023-05-10T03:26:15;14.20;99.90
18898;DHT22;9581;49.484;8.556;2023-05-10T03:28:45;14.10;99.90
18898;DHT22;9581;49.484;8.556;2023-05-10T03:31:14;14.40;99.90
18898;DHT22;9581;49.484;8.556;2023-05-10T03:33:46;14.20;99.90
18898;DHT22;9581;49.484;8.556;2023-05-10T03:36:13;14.30;99.90
18898;DHT22;9581;49.484;8.556;2023-05-10T03:38:40;14.30;99.90
18898;DHT22;9581;49.484;8.556;2023-05-10T03:41:07;14.20;99.90
18898;DHT22;9581;49.484;8.556;2023-05-10T03:43:34;14.30;99.90
18898;DHT22;9581;49.484;8.556;2023-05-10T03:46:03;14.50;99.90
18898;DHT22;9581;49.484;8.556;2023-05-10T03:48:30;14.50;99.90
18898;DHT22;9581;49.484;8.556;2023-05-10T03:50:57;14.40;99.90
18898;DHT22;9581;49.484;8.556;2023-05-10T03:53:23;14.50;99.90
18898;DHT22;9581;49.484;8.556;2023-05-10T03:55:51;14.50;99.90
18898;DHT22;9581;49.484;8.556;2023-05-10T03:58:17;14.60;99.90
18898;DHT22;9581;49.484;8.556;2023-05-10T04:00:44;14.40;99.90
18898;DHT22;9581;49.484;8.556;2023-05-10T04:03:13;14.30;99.90
18898;DHT22;9581;49.484;8.556;2023-05-10T04:05:40;14.20;99.90
18898;DHT22;9581;49.484;8.556;2023-05-10T04:08:07;14.30;99.90
18898;DHT22;9581;49.484;8.556;2023-05-10T04:10:33;14.40;99.90
18898;DHT22;9581;49.484;8.556;2023-05-10T04:13:00;14.50;99.90
18898;DHT22;9581;49.484;8.556;2023-05-10T04:15:27;14.50;99.90
18898;DHT22;9581;49.484;8.556;2023-05-10T04:17:54;14.50;99.90
18898;DHT22;9581;49.484;8.556;2023-05-10T04:20:22;14.50;99.90
18898;DHT22;9581;49.484;8.556;2023-05-10T04:22:48;14.60;99.90
18898;DHT22;9581;49.484;8.556;2023-05-10T04:25:15;14.70;99.90
18898;DHT22;9581;49.484;8.556;2023-05-10T04:27:42;14.60;99.90
18898;DHT22;9581;49.484;8.556;2023-05-10T04:30:09;14.70;99.90
18898;DHT22;9581;49.484;8.556;2023-05-10T04:32:36;14.60;99.90
18898;DHT22;9581;49.484;8.556;2023-05-10T04:35:03;14.60;99.90
18898;DHT22;9581;49.484;8.556;2023-05-10T04:37:32;14.60;99.90
18898;DHT22;9581;49.484;8.556;2023-05-10T04:39:58;14.50;99.90
18898;DHT22;9581;49.484;8.556;2023-05-10T04:42:26;14.50;99.90
18898;DHT22;9581;49.484;8.556;2023-05-10T04:44:53;14.60;99.90
18898;DHT22;9581;49.484;8.556;2023-05-10T04:47:20;14.50;99.90
18898;DHT22;9581;49.484;8.556;2023-05-10T04:49:47;14.60;99.90
18898;DHT22;9581;49.484;8.556;2023-05-10T04:52:13;14.60;99.90
18898;DHT22;9581;49.484;8.556;2023-05-10T04:54:44;14.60;99.90
18898;DHT22;9581;49.484;8.556;2023-05-10T04:57:10;14.70;99.90
18898;DHT22;9581;49.484;8.556;2023-05-10T04:59:37;14.70;99.90
18898;DHT22;9581;49.484;8.556;2023-05-10T05:02:05;14.70;99.90
18898;DHT22;9581;49.484;8.556;2023-05-10T05:04:32;14.50;99.90
18898;DHT22;9581;49.484;8.556;2023-05-10T05:06:59;14.70;99.90
18898;DHT22;9581;49.484;8.556;2023-05-10T05:09:25;14.80;99.90
18898;DHT22;9581;49.484;8.556;2023-05-10T05:11:53;14.80;99.90
18898;DHT22;9581;49.484;8.556;2023-05-10T05:14:20;14.80;99.90
18898;DHT22;9581;49.484;8.556;2023-05-10T05:16:47;14.80;99.90
18898;DHT22;9581;49.484;8.556;2023-05-10T05:19:14;14.80;99.90
18898;DHT22;9581;49.484;8.556;2023-05-10T05:21:41;14.90;99.90
18898;DHT22;9581;49.484;8.556;2023-05-10T05:24:08;15.00;99.90
18898;DHT22;9581;49.484;8.556;2023-05-10T05:26:36;14.90;99.90
18898;DHT22;9581;49.484;8.556;2023-05-10T05:29:04;14.90;99.90
18898;DHT22;9581;49.484;8.556;2023-05-10T05:31:31;15.00;99.90
18898;DHT22;9581;49.484;8.556;2023-05-10T05:33:58;15.00;99.90
18898;DHT22;9581;49.484;8.556;2023-05-10T05:36:25;15.00;99.90
18898;DHT22;9581;49.484;8.556;2023-05-10T05:38:51;15.00;99.90
18898;DHT22;9581;49.484;8.556;2023-05-10T05:41:19;15.10;99.90
18898;DHT22;9581;49.484;8.556;2023-05-10T05:43:46;15.10;99.90
18898;DHT22;9581;49.484;8.556;2023-05-10T05:46:15;15.10;99.90
18898;DHT22;9581;49.484;8.556;2023-05-10T05:48:41;15.00;99.90
18898;DHT22;9581;49.484;8.556;2023-05-10T05:51:08;15.10;99.90
18898;DHT22;9581;49.484;8.556;2023-05-10T05:53:35;15.10;99.90
18898;DHT22;9581;49.484;8.556;2023-05-10T05:56:02;15.20;99.90
18898;DHT22;9581;49.484;8.556;2023-05-10T05:58:29;15.30;99.90
18898;DHT22;9581;49.484;8.556;2023-05-10T06:00:55;15.30;99.90
18898;DHT22;9581;49.484;8.556;2023-05-10T06:03:24;15.30;99.90
18898;DHT22;9581;49.484;8.556;2023-05-10T06:05:50;15.30;99.90
18898;DHT22;9581;49.484;8.556;2023-05-10T06:08:17;15.20;99.90
18898;DHT22;9581;49.484;8.556;2023-05-10T06:10:44;15.30;99.90
18898;DHT22;9581;49.484;8.556;2023-05-10T06:13:11;15.30;99.90
18898;DHT22;9581;49.484;8.556;2023-05-10T06:15:37;15.40;99.90
18898;DHT22;9581;49.484;8.556;2023-05-10T06:18:04;14.90;99.90
18898;DHT22;9581;49.484;8.556;2023-05-10T06:20:32;15.00;99.90
18898;DHT22;9581;49.484;8.556;2023-05-10T06:22:59;15.30;99.90
18898;DHT22;9581;49.484;8.556;2023-05-10T06:25:26;15.30;99.90
18898;DHT22;9581;49.484;8.556;2023-05-10T06:27:53;15.50;99.90
18898;DHT22;9581;49.484;8.556;2023-05-10T06:30:23;15.50;99.90
18898;DHT22;9581;49.484;8.556;2023-05-10T06:32:52;15.40;99.90
18898;DHT22;9581;49.484;8.556;2023-05-10T06:35:20;15.50;99.90
18898;DHT22;9581;49.484;8.556;2023-05-10T06:37:48;15.50;99.90
18898;DHT22;9581;49.484;8.556;2023-05-10T06:40:15;15.50;99.90
18898;DHT22;9581;49.484;8.556;2023-05-10T06:42:42;15.50;99.90
18898;DHT22;9581;49.484;8.556;2023-05-10T06:45:10;15.60;99.90
18898;DHT22;9581;49.484;8.556;2023-05-10T06:47:37;15.50;99.90
18898;DHT22;9581;49.484;8.556;2023-05-10T06:50:05;15.60;99.90
18898;DHT22;9581;49.484;8.556;2023-05-10T06:52:32;15.50;99.90
18898;DHT22;9581;49.484;8.556;2023-05-10T06:55:00;15.20;99.90
18898;DHT22;9581;49.484;8.556;2023-05-10T06:57:27;15.40;99.90
18898;DHT22;9581;49.484;8.556;2023-05-10T06:59:54;15.50;99.90
18898;DHT22;9581;49.484;8.556;2023-05-10T07:02:21;15.30;99.90
18898;DHT22;9581;49.484;8.556;2023-05-10T07:04:48;15.60;99.90
18898;DHT22;9581;49.484;8.556;2023-05-10T07:07:15;15.50;99.90
18898;DHT22;9581;49.484;8.556;2023-05-10T07:09:42;15.60;99.90
18898;DHT22;9581;49.484;8.556;2023-05-10T07:12:10;15.50;99.90
18898;DHT22;9581;49.484;8.556;2023-05-10T07:14:37;15.70;99.90
18898;DHT22;9581;49.484;8.556;2023-05-10T07:17:03;15.50;99.90
18898;DHT22;9581;49.484;8.556;2023-05-10T07:19:30;15.60;99.90
18898;DHT22;9581;49.484;8.556;2023-05-10T07:21:58;15.80;99.90
18898;DHT22;9581;49.484;8.556;2023-05-10T07:24:24;15.80;99.90
18898;DHT22;9581;49.484;8.556;2023-05-10T07:26:51;15.90;99.90
18898;DHT22;9581;49.484;8.556;2023-05-10T07:29:19;15.90;99.90
18898;DHT22;9581;49.484;8.556;2023-05-10T07:31:46;15.90;99.90
18898;DHT22;9581;49.484;8.556;2023-05-10T07:34:13;16.30;99.90
18898;DHT22;9581;49.484;8.556;2023-05-10T07:36:40;16.10;99.90
18898;DHT22;9581;49.484;8.556;2023-05-10T07:39:07;16.30;99.90
18898;DHT22;9581;49.484;8.556;2023-05-10T07:41:34;16.50;99.90
18898;DHT22;9581;49.484;8.556;2023-05-10T07:44:03;16.50;99.90
18898;DHT22;9581;49.484;8.556;2023-05-10T07:46:31;16.40;99.90
18898;DHT22;9581;49.484;8.556;2023-05-10T07:48:58;16.70;99.90
18898;DHT22;9581;49.484;8.556;2023-05-10T07:51:25;16.70;99.90
18898;DHT22;9581;49.484;8.556;2023-05-10T07:53:51;16.60;99.90
18898;DHT22;9581;49.484;8.556;2023-05-10T07:56:23;17.00;99.90
18898;DHT22;9581;49.484;8.556;2023-05-10T07:58:50;17.00;99.90
18898;DHT22;9581;49.484;8.556;2023-05-10T08:01:17;17.10;99.90
18898;DHT22;9581;49.484;8.556;2023-05-10T08:03:45;17.10;99.90
18898;DHT22;9581;49.484;8.556;2023-05-10T08:06:12;16.60;99.90
18898;DHT22;9581;49.484;8.556;2023-05-10T08:08:39;16.70;99.90
18898;DHT22;9581;49.484;8.556;2023-05-10T08:11:06;16.90;99.90
18898;DHT22;9581;49.484;8.556;2023-05-10T08:13:33;16.60;99.90
18898;DHT22;9581;49.484;8.556;2023-05-10T08:16:00;16.20;99.90
18898;DHT22;9581;49.484;8.556;2023-05-10T08:18:26;16.40;99.90
18898;DHT22;9581;49.484;8.556;2023-05-10T08:20:55;16.40;99.90
18898;DHT22;9581;49.484;8.556;2023-05-10T08:23:21;16.70;99.90
18898;DHT22;9581;49.484;8.556;2023-05-10T08:25:48;16.70;99.90
18898;DHT22;9581;49.484;8.556;2023-05-10T08:28:15;16.90;99.90
18898;DHT22;9581;49.484;8.556;2023-05-10T08:30:42;17.10;99.90
18898;DHT22;9581;49.484;8.556;2023-05-10T08:33:08;16.80;99.90
18898;DHT22;9581;49.484;8.556;2023-05-10T08:35:35;16.90;99.90
18898;DHT22;9581;49.484;8.556;2023-05-10T08:38:03;17.10;99.90
18898;DHT22;9581;49.484;8.556;2023-05-10T08:40:30;16.90;99.90
18898;DHT22;9581;49.484;8.556;2023-05-10T08:43:00;17.00;99.90
18898;DHT22;9581;49.484;8.556;2023-05-10T08:45:32;16.80;99.90
18898;DHT22;9581;49.484;8.556;2023-05-10T08:47:59;16.90;99.90
18898;DHT22;9581;49.484;8.556;2023-05-10T08:50:28;16.90;99.90
18898;DHT22;9581;49.484;8.556;2023-05-10T08:52:59;16.80;99.90
18898;DHT22;9581;49.484;8.556;2023-05-10T08:55:28;16.60;99.90
18898;DHT22;9581;49.484;8.556;2023-05-10T08:57:55;16.60;99.90
18898;DHT22;9581;49.484;8.556;2023-05-10T09:00:22;16.40;99.90
18898;DHT22;9581;49.484;8.556;2023-05-10T09:02:50;16.40;99.90
18898;DHT22;9581;49.484;8.556;2023-05-10T09:05:17;16.30;99.90
18898;DHT22;9581;49.484;8.556;2023-05-10T09:07:44;16.40;99.90
18898;DHT22;9581;49.484;8.556;2023-05-10T09:10:11;16.20;99.90
18898;DHT22;9581;49.484;8.556;2023-05-10T09:12:41;16.30;99.90
18898;DHT22;9581;49.484;8.556;2023-05-10T09:15:09;16.20;99.90
18898;DHT22;9581;49.484;8.556;2023-05-10T09:17:37;16.20;99.90
18898;DHT22;9581;49.484;8.556;2023-05-10T09:20:06;16.10;99.90
18898;DHT22;9581;49.484;8.556;2023-05-10T09:22:33;16.00;99.90
18898;DHT22;9581;49.484;8.556;2023-05-10T09:25:07;15.80;99.90
18898;DHT22;9581;49.484;8.556;2023-05-10T09:27:34;15.70;99.90
18898;DHT22;9581;49.484;8.556;2023-05-10T09:30:03;15.60;99.90
18898;DHT22;9581;49.484;8.556;2023-05-10T09:32:38;15.80;99.90
18898;DHT22;9581;49.484;8.556;2023-05-10T09:35:09;15.80;99.90
18898;DHT22;9581;49.484;8.556;2023-05-10T09:37:36;16.00;99.90
18898;DHT22;9581;49.484;8.556;2023-05-10T09:40:06;16.10;99.90
18898;DHT22;9581;49.484;8.556;2023-05-10T09:42:34;16.40;99.90
18898;DHT22;9581;49.484;8.556;2023-05-10T09:45:04;16.70;99.90
18898;DHT22;9581;49.484;8.556;2023-05-10T09:47:32;17.00;99.90
18898;DHT22;9581;49.484;8.556;2023-05-10T09:50:00;16.90;99.90
18898;DHT22;9581;49.484;8.556;2023-05-10T09:52:29;16.90;99.90
18898;DHT22;9581;49.484;8.556;2023-05-10T09:54:56;16.70;99.90
18898;DHT22;9581;49.484;8.556;2023-05-10T09:57:24;16.30;99.90
18898;DHT22;9581;49.484;8.556;2023-05-10T09:59:51;16.10;99.90
18898;DHT22;9581;49.484;8.556;2023-05-10T10:02:21;16.10;99.90
18898;DHT22;9581;49.484;8.556;2023-05-10T10:04:49;16.10;99.90
18898;DHT22;9581;49.484;8.556;2023-05-10T10:07:22;15.80;99.90
18898;DHT22;9581;49.484;8.556;2023-05-10T10:09:50;15.70;99.90
18898;DHT22;9581;49.484;8.556;2023-05-10T10:12:17;16.00;99.90
18898;DHT22;9581;49.484;8.556;2023-05-10T10:14:46;16.10;99.90
18898;DHT22;9581;49.484;8.556;2023-05-10T10:17:13;16.20;99.90
18898;DHT22;9581;49.484;8.556;2023-05-10T10:19:41;16.40;99.90
18898;DHT22;9581;49.484;8.556;2023-05-10T10:22:08;16.80;99.90
18898;DHT22;9581;49.484;8.556;2023-05-10T10:24:37;17.00;99.90
18898;DHT22;9581;49.484;8.556;2023-05-10T10:27:12;17.20;99.90
18898;DHT22;9581;49.484;8.556;2023-05-10T10:29:49;17.00;99.90
18898;DHT22;9581;49.484;8.556;2023-05-10T10:32:25;16.60;99.90
18898;DHT22;9581;49.484;8.556;2023-05-10T10:34:55;16.50;99.90
18898;DHT22;9581;49.484;8.556;2023-05-10T10:37:22;16.60;99.90
18898;DHT22;9581;49.484;8.556;2023-05-10T10:39:50;16.60;99.90
18898;DHT22;9581;49.484;8.556;2023-05-10T10:42:43;16.70;99.90
18898;DHT22;9581;49.484;8.556;2023-05-10T10:45:13;16.80;99.90
18898;DHT22;9581;49.484;8.556;2023-05-10T10:47:40;16.90;99.90
18898;DHT22;9581;49.484;8.556;2023-05-10T10:50:10;17.10;99.90
18898;DHT22;9581;49.484;8.556;2023-05-10T10:52:38;17.40;99.90
18898;DHT22;9581;49.484;8.556;2023-05-10T10:55:07;17.60;99.90
18898;DHT22;9581;49.484;8.556;2023-05-10T10:57:44;18.20;99.90
18898;DHT22;9581;49.484;8.556;2023-05-10T11:00:25;18.50;99.90
18898;DHT22;9581;49.484;8.556;2023-05-10T11:02:54;18.80;99.90
18898;DHT22;9581;49.484;8.556;2023-05-10T11:05:38;18.60;99.90
18898;DHT22;9581;49.484;8.556;2023-05-10T11:08:17;18.80;99.90
18898;DHT22;9581;49.484;8.556;2023-05-10T11:11:01;18.90;99.90
18898;DHT22;9581;49.484;8.556;2023-05-10T11:13:30;19.20;99.90
18898;DHT22;9581;49.484;8.556;2023-05-10T11:15:58;19.20;99.90
18898;DHT22;9581;49.484;8.556;2023-05-10T11:18:36;19.40;99.90
18898;DHT22;9581;49.484;8.556;2023-05-10T11:21:05;18.90;99.90
18898;DHT22;9581;49.484;8.556;2023-05-10T11:23:49;19.00;99.90
18898;DHT22;9581;49.484;8.556;2023-05-10T11:26:17;19.00;99.90
18898;DHT22;9581;49.484;8.556;2023-05-10T11:28:44;19.10;99.90
18898;DHT22;9581;49.484;8.556;2023-05-10T11:31:13;19.00;99.90
18898;DHT22;9581;49.484;8.556;2023-05-10T11:33:43;18.90;99.90
18898;DHT22;9581;49.484;8.556;2023-05-10T11:36:13;19.30;99.90
18898;DHT22;9581;49.484;8.556;2023-05-10T11:38:41;19.40;99.90
18898;DHT22;9581;49.484;8.556;2023-05-10T11:41:08;19.30;99.90
18898;DHT22;9581;49.484;8.556;2023-05-10T11:43:37;19.90;99.90
18898;DHT22;9581;49.484;8.556;2023-05-10T11:46:04;20.60;99.90
18898;DHT22;9581;49.484;8.556;2023-05-10T11:48:32;19.80;99.90
18898;DHT22;9581;49.484;8.556;2023-05-10T11:50:58;19.90;99.90
18898;DHT22;9581;49.484;8.556;2023-05-10T11:53:31;19.60;99.90
18898;DHT22;9581;49.484;8.556;2023-05-10T11:56:02;19.60;99.90
18898;DHT22;9581;49.484;8.556;2023-05-10T11:58:30;20.00;99.90
18898;DHT22;9581;49.484;8.556;2023-05-10T12:00:58;20.10;99.90
18898;DHT22;9581;49.484;8.556;2023-05-10T12:03:25;20.60;99.90
18898;DHT22;9581;49.484;8.556;2023-05-10T12:05:52;20.50;99.90
18898;DHT22;9581;49.484;8.556;2023-05-10T12:08:20;20.90;99.90
18898;DHT22;9581;49.484;8.556;2023-05-10T12:10:49;20.60;99.90
18898;DHT22;9581;49.484;8.556;2023-05-10T12:13:16;20.80;99.90
18898;DHT22;9581;49.484;8.556;2023-05-10T12:15:43;20.00;99.90
18898;DHT22;9581;49.484;8.556;2023-05-10T12:18:11;20.50;99.90
18898;DHT22;9581;49.484;8.556;2023-05-10T12:20:38;20.10;99.90
18898;DHT22;9581;49.484;8.556;2023-05-10T12:23:05;20.50;99.90
18898;DHT22;9581;49.484;8.556;2023-05-10T12:25:35;20.20;99.90
18898;DHT22;9581;49.484;8.556;2023-05-10T12:28:05;21.10;99.90
18898;DHT22;9581;49.484;8.556;2023-05-10T12:30:34;20.90;99.90
18898;DHT22;9581;49.484;8.556;2023-05-10T12:33:02;20.00;99.90
18898;DHT22;9581;49.484;8.556;2023-05-10T12:35:33;19.70;99.90
18898;DHT22;9581;49.484;8.556;2023-05-10T12:38:00;19.60;99.90
18898;DHT22;9581;49.484;8.556;2023-05-10T12:40:27;19.60;99.90
18898;DHT22;9581;49.484;8.556;2023-05-10T12:42:54;19.30;99.90
18898;DHT22;9581;49.484;8.556;2023-05-10T12:45:22;19.60;99.90
18898;DHT22;9581;49.484;8.556;2023-05-10T12:47:49;19.00;99.90
18898;DHT22;9581;49.484;8.556;2023-05-10T12:50:16;18.80;99.90
18898;DHT22;9581;49.484;8.556;2023-05-10T12:52:43;19.50;99.90
18898;DHT22;9581;49.484;8.556;2023-05-10T12:55:10;20.30;99.90
18898;DHT22;9581;49.484;8.556;2023-05-10T12:57:37;21.90;99.90
18898;DHT22;9581;49.484;8.556;2023-05-10T13:00:05;21.00;99.90
18898;DHT22;9581;49.484;8.556;2023-05-10T13:02:33;20.30;99.90
18898;DHT22;9581;49.484;8.556;2023-05-10T13:05:00;21.00;99.90
18898;DHT22;9581;49.484;8.556;2023-05-10T13:07:27;20.60;99.90
18898;DHT22;9581;49.484;8.556;2023-05-10T13:09:53;21.30;99.90
18898;DHT22;9581;49.484;8.556;2023-05-10T13:12:20;21.40;99.90
18898;DHT22;9581;49.484;8.556;2023-05-10T13:14:47;21.20;99.90
18898;DHT22;9581;49.484;8.556;2023-05-10T13:17:13;21.30;99.90
18898;DHT22;9581;49.484;8.556;2023-05-10T13:19:41;21.70;99.90
18898;DHT22;9581;49.484;8.556;2023-05-10T13:22:08;21.70;99.90
18898;DHT22;9581;49.484;8.556;2023-05-10T13:24:38;21.40;99.90
18898;DHT22;9581;49.484;8.556;2023-05-10T13:27:04;20.60;99.90
18898;DHT22;9581;49.484;8.556;2023-05-10T13:29:31;21.10;99.90
18898;DHT22;9581;49.484;8.556;2023-05-10T13:31:58;21.60;99.90
18898;DHT22;9581;49.484;8.556;2023-05-10T13:34:25;22.10;99.90
18898;DHT22;9581;49.484;8.556;2023-05-10T13:36:54;22.70;99.90
18898;DHT22;9581;49.484;8.556;2023-05-10T13:39:21;22.50;99.90
18898;DHT22;9581;49.484;8.556;2023-05-10T13:41:48;21.80;99.90
18898;DHT22;9581;49.484;8.556;2023-05-10T13:44:15;21.90;99.90
18898;DHT22;9581;49.484;8.556;2023-05-10T13:46:41;21.80;99.90
18898;DHT22;9581;49.484;8.556;2023-05-10T13:49:09;21.00;99.90
18898;DHT22;9581;49.484;8.556;2023-05-10T13:51:36;21.80;99.90
18898;DHT22;9581;49.484;8.556;2023-05-10T13:54:04;22.20;99.90
18898;DHT22;9581;49.484;8.556;2023-05-10T13:56:31;21.60;99.90
18898;DHT22;9581;49.484;8.556;2023-05-10T13:58:57;22.70;99.90
18898;DHT22;9581;49.484;8.556;2023-05-10T14:01:24;22.80;99.90
18898;DHT22;9581;49.484;8.556;2023-05-10T14:03:51;23.80;99.90
18898;DHT22;9581;49.484;8.556;2023-05-10T14:06:18;23.00;99.90
18898;DHT22;9581;49.484;8.556;2023-05-10T14:08:44;23.80;99.90
18898;DHT22;9581;49.484;8.556;2023-05-10T14:11:12;23.10;99.90
18898;DHT22;9581;49.484;8.556;2023-05-10T14:13:39;22.40;99.90
18898;DHT22;9581;49.484;8.556;2023-05-10T14:16:06;22.50;99.90
18898;DHT22;9581;49.484;8.556;2023-05-10T14:18:41;23.20;99.90
18898;DHT22;9581;49.484;8.556;2023-05-10T14:21:08;22.70;99.90
18898;DHT22;9581;49.484;8.556;2023-05-10T14:23:35;22.30;99.90
18898;DHT22;9581;49.484;8.556;2023-05-10T14:26:01;22.90;99.90
18898;DHT22;9581;49.484;8.556;2023-05-10T14:28:28;23.20;99.90
18898;DHT22;9581;49.484;8.556;2023-05-10T14:30:55;23.00;99.90
18898;DHT22;9581;49.484;8.556;2023-05-10T14:33:22;24.30;99.90
18898;DHT22;9581;49.484;8.556;2023-05-10T14:35:50;23.60;99.30
18898;DHT22;9581;49.484;8.556;2023-05-10T14:38:17;24.30;99.90
18898;DHT22;9581;49.484;8.556;2023-05-10T14:40:44;24.40;98.70
18898;DHT22;9581;49.484;8.556;2023-05-10T14:43:11;22.50;98.30
18898;DHT22;9581;49.484;8.556;2023-05-10T14:45:37;23.40;97.80
18898;DHT22;9581;49.484;8.556;2023-05-10T14:48:04;24.20;97.10
18898;DHT22;9581;49.484;8.556;2023-05-10T14:50:31;24.10;95.90
18898;DHT22;9581;49.484;8.556;2023-05-10T14:52:59;24.20;95.00
18898;DHT22;9581;49.484;8.556;2023-05-10T14:55:26;24.80;94.50
18898;DHT22;9581;49.484;8.556;2023-05-10T14:57:53;24.80;95.90
18898;DHT22;9581;49.484;8.556;2023-05-10T15:00:20;24.90;93.90
18898;DHT22;9581;49.484;8.556;2023-05-10T15:02:47;23.20;95.20
18898;DHT22;9581;49.484;8.556;2023-05-10T15:05:14;23.60;95.80
18898;DHT22;9581;49.484;8.556;2023-05-10T15:07:41;23.30;95.40
18898;DHT22;9581;49.484;8.556;2023-05-10T15:10:10;23.20;94.80
18898;DHT22;9581;49.484;8.556;2023-05-10T15:12:38;21.40;95.20
18898;DHT22;9581;49.484;8.556;2023-05-10T15:15:06;21.90;96.30
18898;DHT22;9581;49.484;8.556;2023-05-10T15:17:33;23.30;96.90
18898;DHT22;9581;49.484;8.556;2023-05-10T15:20:00;21.90;95.70
18898;DHT22;9581;49.484;8.556;2023-05-10T15:22:28;21.90;95.00
18898;DHT22;9581;49.484;8.556;2023-05-10T15:24:57;22.30;95.70
18898;DHT22;9581;49.484;8.556;2023-05-10T15:27:25;22.70;95.30
18898;DHT22;9581;49.484;8.556;2023-05-10T15:29:51;23.90;97.60
18898;DHT22;9581;49.484;8.556;2023-05-10T15:32:18;24.10;96.10
18898;DHT22;9581;49.484;8.556;2023-05-10T15:34:45;24.20;96.30
18898;DHT22;9581;49.484;8.556;2023-05-10T15:37:12;23.10;92.90
18898;DHT22;9581;49.484;8.556;2023-05-10T15:39:38;23.20;96.00
18898;DHT22;9581;49.484;8.556;2023-05-10T15:42:05;23.30;97.00
18898;DHT22;9581;49.484;8.556;2023-05-10T15:44:34;23.30;94.20
18898;DHT22;9581;49.484;8.556;2023-05-10T15:47:03;22.80;96.80
18898;DHT22;9581;49.484;8.556;2023-05-10T15:49:30;22.70;94.60
18898;DHT22;9581;49.484;8.556;2023-05-10T15:51:58;22.00;94.00